createdAt,value
2023-03-03T00:01:58.530Z,18.48
2023-03-03T00:04:25.292Z,19.13
2023-03-03T00:06:52.119Z,21.13
2023-03-03T00:09:18.870Z,21.77
2023-03-03T00:11:50.316Z,25.48
2023-03-03T00:14:37.369Z,18.85
2023-03-03T00:17:21.490Z,22.02
2023-03-03T00:22:36.269Z,16.98
2023-03-03T00:25:28.530Z,18.17
2023-03-03T00:27:55.793Z,16.83
2023-03-03T00:30:28.057Z,21.42
2023-03-03T00:32:55.762Z,19.77
2023-03-03T00:35:30.095Z,22.45
2023-03-03T00:38:10.600Z,18.70
2023-03-03T00:40:39.688Z,21.95
2023-03-03T00:43:25.214Z,19.77
2023-03-03T00:45:56.937Z,23.35
2023-03-03T00:48:37.581Z,22.98
2023-03-03T00:51:28.058Z,20.08
2023-03-03T00:53:56.081Z,20.13
2023-03-03T00:56:23.233Z,22.15
2023-03-03T00:58:51.153Z,21.02
2023-03-03T01:01:19.038Z,25.98
2023-03-03T01:03:45.939Z,22.50
2023-03-03T01:06:14.136Z,21.83
2023-03-03T01:08:40.916Z,24.25
2023-03-03T01:11:16.422Z,24.50
2023-03-03T01:13:47.632Z,28.65
2023-03-03T01:16:14.472Z,26.02
2023-03-03T01:18:42.066Z,27.55
2023-03-03T01:21:10.638Z,28.15
2023-03-03T01:23:37.774Z,27.08
2023-03-03T01:26:06.868Z,31.00
2023-03-03T01:28:34.519Z,24.33
2023-03-03T01:31:06.193Z,27.50
2023-03-03T01:33:35.107Z,29.48
2023-03-03T01:36:02.602Z,34.05
2023-03-03T01:38:29.887Z,29.95
2023-03-03T01:40:59.798Z,26.10
2023-03-03T01:43:28.680Z,27.45
2023-03-03T01:45:58.442Z,33.08
2023-03-03T01:48:30.368Z,32.63
2023-03-03T01:51:19.311Z,34.67
2023-03-03T01:53:55.099Z,35.80
2023-03-03T01:56:22.329Z,32.53
2023-03-03T01:58:59.815Z,31.63
2023-03-03T02:01:29.265Z,32.15
2023-03-03T02:03:56.121Z,32.72
2023-03-03T02:06:27.559Z,34.53
2023-03-03T02:09:02.356Z,34.38
2023-03-03T02:11:32.725Z,34.60
2023-03-03T02:13:59.510Z,33.67
2023-03-03T02:16:26.687Z,31.70
2023-03-03T02:18:53.531Z,32.50
2023-03-03T02:21:27.657Z,38.00
2023-03-03T02:24:16.657Z,39.38
2023-03-03T02:26:44.669Z,34.60
2023-03-03T02:29:11.579Z,34.33
2023-03-03T02:31:38.639Z,31.55
2023-03-03T02:34:06.100Z,33.28
2023-03-03T02:36:37.463Z,32.55
2023-03-03T02:39:27.174Z,33.22
2023-03-03T02:42:17.416Z,31.65
2023-03-03T02:44:44.378Z,28.27
2023-03-03T02:47:11.241Z,30.40
2023-03-03T02:49:38.688Z,30.58
2023-03-03T02:52:12.028Z,31.85
2023-03-03T02:54:38.900Z,28.67
2023-03-03T02:57:07.143Z,33.97
2023-03-03T02:59:33.928Z,34.20
2023-03-03T03:02:00.674Z,37.58
2023-03-03T03:04:28.332Z,27.15
2023-03-03T03:06:56.014Z,34.60
2023-03-03T03:09:25.058Z,32.13
2023-03-03T03:11:52.565Z,33.67
2023-03-03T03:14:19.546Z,32.67
2023-03-03T03:16:46.365Z,33.55
2023-03-03T03:19:13.512Z,32.60
2023-03-03T03:21:40.322Z,30.73
2023-03-03T03:24:07.347Z,32.78
2023-03-03T03:26:34.178Z,35.88
2023-03-03T03:29:01.023Z,30.90
2023-03-03T03:31:27.839Z,33.05
2023-03-03T03:33:54.629Z,32.63
2023-03-03T03:36:21.477Z,34.35
2023-03-03T03:38:48.367Z,28.00
2023-03-03T03:41:15.185Z,34.08
2023-03-03T03:43:42.050Z,34.97
2023-03-03T03:46:09.055Z,34.95
2023-03-03T03:48:36.281Z,36.33
2023-03-03T03:51:03.815Z,32.38
2023-03-03T03:53:33.428Z,34.10
2023-03-03T03:56:00.180Z,30.25
2023-03-03T03:58:27.007Z,32.25
2023-03-03T04:00:53.803Z,31.90
2023-03-03T04:03:20.764Z,35.85
2023-03-03T04:05:47.623Z,36.17
2023-03-03T04:08:14.412Z,30.08
2023-03-03T04:10:41.211Z,35.22
2023-03-03T04:13:07.970Z,35.03
2023-03-03T04:15:34.811Z,34.38
2023-03-03T04:18:01.845Z,37.35
2023-03-03T04:20:28.876Z,37.28
2023-03-03T04:22:56.667Z,39.40
2023-03-03T04:25:23.757Z,35.53
2023-03-03T04:27:52.008Z,35.47
2023-03-03T04:30:19.050Z,36.10
2023-03-03T04:32:45.818Z,36.20
2023-03-03T04:35:12.836Z,38.35
2023-03-03T04:37:39.874Z,34.58
2023-03-03T04:40:08.993Z,39.97
2023-03-03T04:42:35.926Z,34.88
2023-03-03T04:45:04.021Z,37.15
2023-03-03T04:47:32.760Z,36.97
2023-03-03T04:50:00.913Z,39.83
2023-03-03T04:52:28.080Z,39.38
2023-03-03T04:54:54.852Z,37.60
2023-03-03T04:57:21.638Z,35.03
2023-03-03T04:59:48.721Z,38.45
2023-03-03T05:02:15.899Z,37.75
2023-03-03T05:04:42.781Z,38.95
2023-03-03T05:07:09.783Z,36.47
2023-03-03T05:09:36.792Z,37.92
2023-03-03T05:12:03.744Z,38.55
2023-03-03T05:14:31.420Z,39.47
2023-03-03T05:16:58.250Z,39.35
2023-03-03T05:19:25.483Z,36.28
2023-03-03T05:21:52.262Z,34.70
2023-03-03T05:24:19.084Z,33.70
2023-03-03T05:26:45.889Z,31.95
2023-03-03T05:29:12.678Z,33.58
2023-03-03T05:31:39.540Z,35.60
2023-03-03T05:34:06.347Z,31.00
2023-03-03T05:36:33.116Z,28.75
2023-03-03T05:38:59.905Z,30.00
2023-03-03T05:41:26.715Z,31.55
2023-03-03T05:43:53.624Z,31.23
2023-03-03T05:46:20.430Z,34.30
2023-03-03T05:48:47.407Z,29.25
2023-03-03T05:51:14.171Z,34.85
2023-03-03T05:53:41.097Z,30.55
2023-03-03T05:56:08.165Z,28.85
2023-03-03T05:58:34.950Z,31.27
2023-03-03T06:01:01.802Z,28.67
2023-03-03T06:03:28.916Z,26.85
2023-03-03T06:05:55.730Z,30.92
2023-03-03T06:08:23.868Z,29.92
2023-03-03T06:10:50.709Z,28.02
2023-03-03T06:13:17.598Z,28.00
2023-03-03T06:15:44.532Z,28.90
2023-03-03T06:18:11.390Z,28.80
2023-03-03T06:20:38.816Z,30.25
2023-03-03T06:23:06.020Z,23.73
2023-03-03T06:25:35.568Z,29.33
2023-03-03T06:28:03.849Z,32.28
2023-03-03T06:30:30.714Z,31.10
2023-03-03T06:32:57.655Z,32.33
2023-03-03T06:35:24.619Z,28.63
2023-03-03T06:37:51.548Z,32.30
2023-03-03T06:40:18.558Z,28.40
2023-03-03T06:42:45.462Z,29.92
2023-03-03T06:45:12.707Z,28.80
2023-03-03T06:47:39.529Z,29.05
2023-03-03T06:50:07.965Z,31.58
2023-03-03T06:52:34.777Z,32.13
2023-03-03T06:55:11.766Z,26.02
2023-03-03T06:57:38.625Z,24.48
2023-03-03T07:00:26.255Z,23.30
2023-03-03T07:03:08.792Z,28.05
2023-03-03T07:05:35.600Z,24.27
2023-03-03T07:08:02.383Z,29.63
2023-03-03T07:10:30.920Z,30.27
2023-03-03T07:13:16.013Z,24.60
2023-03-03T07:15:42.810Z,28.35
2023-03-03T07:18:52.519Z,25.77
2023-03-03T07:21:37.810Z,33.42
2023-03-03T07:24:30.062Z,27.40
2023-03-03T07:27:26.964Z,25.65
2023-03-03T07:30:01.694Z,27.75
2023-03-03T07:32:49.081Z,24.05
2023-03-03T07:35:40.757Z,25.45
2023-03-03T07:38:35.118Z,24.30
2023-03-03T07:41:20.697Z,24.73
2023-03-03T07:43:55.112Z,24.77
2023-03-03T07:46:42.624Z,29.08
2023-03-03T07:49:38.610Z,24.70
2023-03-03T07:52:40.437Z,25.55
2023-03-03T07:55:26.335Z,25.85
2023-03-03T07:57:59.175Z,25.38
2023-03-03T08:00:29.095Z,29.42
2023-03-03T08:03:02.874Z,26.77
2023-03-03T08:05:42.053Z,24.25
2023-03-03T08:08:33.820Z,25.75
2023-03-03T08:11:02.698Z,24.88
2023-03-03T08:13:34.340Z,25.27
2023-03-03T08:16:18.682Z,25.63
2023-03-03T08:18:53.215Z,23.35
2023-03-03T08:21:25.288Z,26.48
2023-03-03T08:23:53.697Z,24.73
2023-03-03T08:26:22.184Z,25.38
2023-03-03T08:28:49.133Z,25.95
2023-03-03T08:31:28.063Z,24.35
2023-03-03T08:34:01.848Z,26.45
2023-03-03T08:36:28.595Z,27.70
2023-03-03T08:38:55.518Z,28.48
2023-03-03T08:41:22.284Z,28.83
2023-03-03T08:43:49.137Z,31.85
2023-03-03T08:46:16.224Z,29.92
2023-03-03T08:48:43.039Z,25.52
2023-03-03T08:51:10.003Z,26.58
2023-03-03T08:53:38.134Z,26.80
2023-03-03T08:56:06.818Z,27.23
2023-03-03T08:58:35.851Z,26.83
2023-03-03T09:01:04.135Z,29.42
2023-03-03T09:03:31.286Z,26.65
2023-03-03T09:05:58.077Z,25.90
2023-03-03T09:08:24.842Z,26.15
2023-03-03T09:10:51.602Z,32.42
2023-03-03T09:13:19.767Z,27.38
2023-03-03T09:15:48.844Z,29.83
2023-03-03T09:18:22.353Z,26.67
2023-03-03T09:20:54.455Z,25.70
2023-03-03T09:23:35.562Z,29.33
2023-03-03T09:26:11.546Z,27.83
2023-03-03T09:28:38.678Z,30.63
2023-03-03T09:31:25.425Z,27.60
2023-03-03T09:33:55.120Z,28.65
2023-03-03T09:36:30.270Z,26.77
2023-03-03T09:38:58.222Z,28.23
2023-03-03T09:42:02.870Z,27.55
2023-03-03T09:44:56.733Z,27.10
2023-03-03T09:47:53.237Z,18.92
2023-03-03T09:50:48.524Z,25.67
2023-03-03T09:53:58.613Z,24.10
2023-03-03T09:56:34.090Z,28.95
2023-03-03T09:59:45.398Z,22.25
2023-03-03T10:02:39.320Z,20.90
2023-03-03T10:05:43.392Z,18.25
2023-03-03T10:08:18.964Z,22.98
2023-03-03T10:11:17.519Z,23.35
2023-03-03T10:14:04.968Z,21.05
2023-03-03T10:16:58.318Z,23.40
2023-03-03T10:19:47.742Z,26.70
2023-03-03T10:22:41.660Z,24.85
2023-03-03T10:25:36.598Z,25.67
2023-03-03T10:31:28.835Z,21.50
2023-03-03T10:34:22.029Z,25.17
2023-03-03T10:36:59.520Z,23.65
2023-03-03T10:39:39.742Z,23.17
2023-03-03T10:42:24.885Z,22.90
2023-03-03T10:45:35.809Z,24.58
2023-03-03T10:48:41.491Z,26.50
2023-03-03T10:51:45.953Z,25.05
2023-03-03T10:54:45.601Z,25.02
2023-03-03T10:57:20.269Z,30.75
2023-03-03T11:00:17.600Z,29.02
2023-03-03T11:03:23.040Z,25.98
2023-03-03T11:06:02.509Z,27.60
2023-03-03T11:08:43.534Z,30.67
2023-03-03T11:11:27.209Z,24.92
2023-03-03T11:14:12.803Z,25.25
2023-03-03T11:17:00.943Z,27.27
2023-03-03T11:20:28.116Z,30.25
2023-03-03T11:23:32.216Z,30.10
2023-03-03T11:26:12.257Z,29.80
2023-03-03T11:29:02.964Z,38.47
2023-03-03T11:31:56.138Z,35.90
2023-03-03T11:34:50.496Z,33.22
2023-03-03T11:37:54.177Z,33.90
2023-03-03T11:40:27.452Z,34.38
2023-03-03T11:43:35.407Z,34.50
2023-03-03T11:46:12.100Z,31.02
2023-03-03T11:49:03.826Z,33.90
2023-03-03T11:52:11.742Z,31.75
2023-03-03T11:55:08.533Z,37.05
2023-03-03T11:58:07.110Z,43.08
2023-03-03T12:00:52.653Z,41.67
2023-03-03T12:03:40.742Z,40.63
2023-03-03T12:06:25.111Z,42.83
2023-03-03T12:09:40.078Z,38.22
2023-03-03T12:12:16.236Z,42.00
2023-03-03T12:15:24.287Z,42.35
2023-03-03T12:18:30.800Z,43.25
2023-03-03T12:21:18.338Z,41.05
2023-03-03T12:24:06.836Z,47.80
2023-03-03T12:27:00.071Z,46.70
2023-03-03T12:29:40.176Z,46.38
2023-03-03T12:32:21.691Z,44.80
2023-03-03T12:35:02.098Z,44.42
2023-03-03T12:37:53.503Z,43.13
2023-03-03T12:40:35.656Z,44.97
2023-03-03T12:43:33.070Z,46.38
2023-03-03T12:46:39.218Z,44.05
2023-03-03T12:49:06.299Z,45.40
2023-03-03T12:52:07.303Z,53.55
2023-03-03T12:54:53.632Z,48.70
2023-03-03T12:57:59.942Z,46.65
2023-03-03T13:00:39.953Z,46.22
2023-03-03T13:03:55.681Z,46.25
2023-03-03T13:06:48.606Z,48.17
2023-03-03T13:10:02.978Z,43.85
2023-03-03T13:12:44.809Z,45.05
2023-03-03T13:15:18.372Z,44.53
2023-03-03T13:18:27.862Z,43.63
2023-03-03T13:21:10.997Z,48.30
2023-03-03T13:24:16.165Z,42.55
2023-03-03T13:26:52.740Z,47.70
2023-03-03T13:29:42.704Z,42.08
2023-03-03T13:32:17.928Z,41.67
2023-03-03T13:35:21.290Z,44.03
2023-03-03T13:37:56.550Z,43.17
2023-03-03T13:40:57.782Z,43.42
2023-03-03T13:43:27.111Z,39.92
2023-03-03T13:46:30.279Z,37.72
2023-03-03T13:49:27.499Z,37.72
2023-03-03T13:52:06.192Z,41.38
2023-03-03T13:54:48.066Z,41.92
2023-03-03T13:57:42.666Z,35.75
2023-03-03T14:00:47.707Z,35.38
2023-03-03T14:03:57.188Z,37.88
2023-03-03T14:06:28.120Z,38.40
2023-03-03T14:09:12.372Z,35.22
2023-03-03T14:12:00.346Z,32.85
2023-03-03T14:14:56.254Z,35.28
2023-03-03T14:17:36.643Z,34.60
2023-03-03T14:20:30.091Z,36.28
2023-03-03T14:23:04.979Z,35.63
2023-03-03T14:26:04.204Z,41.53
2023-03-03T14:28:51.226Z,40.05
2023-03-03T14:31:27.498Z,40.63
2023-03-03T14:34:23.868Z,40.65
2023-03-03T14:36:54.032Z,38.92
2023-03-03T14:39:34.268Z,41.35
2023-03-03T14:42:07.015Z,39.28
2023-03-03T14:44:54.057Z,38.45
2023-03-03T14:47:24.111Z,39.38
2023-03-03T14:49:53.258Z,40.88
2023-03-03T14:52:28.178Z,38.35
2023-03-03T14:55:01.314Z,45.45
2023-03-03T14:57:52.948Z,39.40
2023-03-03T15:00:19.795Z,38.78
2023-03-03T15:02:52.686Z,39.30
2023-03-03T15:05:31.594Z,38.85
2023-03-03T15:08:11.417Z,45.50
2023-03-03T15:10:41.809Z,37.28
2023-03-03T15:13:34.217Z,33.70
2023-03-03T15:16:22.622Z,33.85
2023-03-03T15:19:00.506Z,34.55
2023-03-03T15:21:34.398Z,37.30
2023-03-03T15:24:30.704Z,32.88
2023-03-03T15:27:08.712Z,31.58
2023-03-03T15:30:15.825Z,31.90
2023-03-03T15:33:06.939Z,31.73
2023-03-03T15:36:30.984Z,31.10
2023-03-03T15:39:41.666Z,32.78
2023-03-03T15:42:24.298Z,35.72
2023-03-03T15:45:13.864Z,36.05
2023-03-03T15:48:26.895Z,33.20
2023-03-03T15:51:31.417Z,43.05
2023-03-03T15:54:25.472Z,45.17
2023-03-03T15:57:16.524Z,45.85
2023-03-03T16:00:32.766Z,50.70
2023-03-03T16:03:10.632Z,51.95
2023-03-03T16:06:09.000Z,53.60
2023-03-03T16:09:07.094Z,54.03
2023-03-03T16:11:50.035Z,49.25
2023-03-03T16:15:01.599Z,42.25
2023-03-03T16:18:17.066Z,47.28
2023-03-03T16:23:37.055Z,39.70
2023-03-03T16:26:36.974Z,34.70
2023-03-03T16:29:09.352Z,43.05
2023-03-03T16:31:43.884Z,44.10
2023-03-03T16:34:21.956Z,48.50
2023-03-03T16:37:31.167Z,47.58
2023-03-03T16:40:17.253Z,41.80
2023-03-03T16:42:44.601Z,46.78
2023-03-03T16:45:40.371Z,43.22
2023-03-03T16:48:14.236Z,44.28
2023-03-03T16:51:14.496Z,43.88
2023-03-03T16:53:57.372Z,43.35
2023-03-03T16:56:35.239Z,49.33
2023-03-03T16:59:33.801Z,47.45
2023-03-03T17:02:20.862Z,48.65
2023-03-03T17:04:59.113Z,49.13
2023-03-03T17:08:06.529Z,50.63
2023-03-03T17:10:42.439Z,53.95
2023-03-03T17:13:15.698Z,51.28
2023-03-03T17:16:08.354Z,50.58
2023-03-03T17:18:56.922Z,51.17
2023-03-03T17:22:03.380Z,55.40
2023-03-03T17:25:00.830Z,60.30
2023-03-03T17:28:04.868Z,56.40
2023-03-03T17:31:00.608Z,62.00
2023-03-03T17:33:55.641Z,63.47
2023-03-03T17:36:54.270Z,61.40
2023-03-03T17:40:17.516Z,61.58
2023-03-03T17:43:33.767Z,59.05
2023-03-03T17:46:05.021Z,67.30
2023-03-03T17:49:06.766Z,71.65
2023-03-03T17:51:51.851Z,72.20
2023-03-03T17:54:42.508Z,68.90
2023-03-03T17:57:45.379Z,70.88
2023-03-03T18:01:03.874Z,72.90
2023-03-03T18:04:31.423Z,72.35
2023-03-03T18:07:35.791Z,68.75
2023-03-03T18:10:27.331Z,68.75
2023-03-03T18:13:21.495Z,68.07
2023-03-03T18:16:12.352Z,69.80
2023-03-03T18:21:54.304Z,61.07
2023-03-03T18:24:39.009Z,57.78
2023-03-03T18:27:29.922Z,59.50
2023-03-03T18:30:35.222Z,53.58
2023-03-03T18:33:13.912Z,56.80
2023-03-03T18:35:46.234Z,57.85
2023-03-03T18:38:16.061Z,53.28
2023-03-03T18:40:58.654Z,59.65
2023-03-03T18:43:43.632Z,49.30
2023-03-03T18:46:22.670Z,55.30
2023-03-03T18:49:04.713Z,47.42
2023-03-03T18:51:34.664Z,47.67
2023-03-03T18:54:12.959Z,44.92
2023-03-03T18:56:57.837Z,47.50
2023-03-03T18:59:30.780Z,43.17
2023-03-03T19:02:12.832Z,49.55
2023-03-03T19:04:56.668Z,42.53
2023-03-03T19:07:41.970Z,54.40
2023-03-03T19:10:50.468Z,46.53
2023-03-03T19:13:32.445Z,44.40
2023-03-03T19:16:05.104Z,39.20
2023-03-03T19:18:42.464Z,44.58
2023-03-03T19:21:12.436Z,39.58
2023-03-03T19:24:04.371Z,40.22
2023-03-03T19:26:50.196Z,43.20
2023-03-03T19:29:45.610Z,35.45
2023-03-03T19:32:34.283Z,38.25
2023-03-03T19:35:41.912Z,36.33
2023-03-03T19:38:23.092Z,30.77
2023-03-03T19:41:23.530Z,34.95
2023-03-03T19:44:57.954Z,31.17
2023-03-03T19:47:48.593Z,27.77
2023-03-03T19:50:33.060Z,29.15
2023-03-03T19:56:05.899Z,27.40
2023-03-03T19:59:31.524Z,32.60
2023-03-03T20:02:27.142Z,26.35
2023-03-03T20:05:19.461Z,29.95
2023-03-03T20:07:58.802Z,22.50
2023-03-03T20:10:43.841Z,25.77
2023-03-03T20:13:55.213Z,19.67
2023-03-03T20:16:42.757Z,22.70
2023-03-03T20:19:43.135Z,23.38
2023-03-03T20:22:34.188Z,26.00
2023-03-03T20:25:22.586Z,25.58
2023-03-03T20:28:24.895Z,26.48
2023-03-03T20:31:20.687Z,25.23
2023-03-03T20:34:23.746Z,26.63
2023-03-03T20:37:21.431Z,23.02
2023-03-03T20:40:33.392Z,24.52
2023-03-03T20:43:42.681Z,25.48
2023-03-03T20:46:22.942Z,21.20
2023-03-03T20:49:14.631Z,23.58
2023-03-03T20:51:59.017Z,19.90
2023-03-03T20:54:59.767Z,24.08
2023-03-03T20:58:05.382Z,23.27
2023-03-03T21:00:38.901Z,20.33
2023-03-03T21:03:34.256Z,16.90
2023-03-03T21:06:17.801Z,20.85
2023-03-03T21:08:53.818Z,19.40
2023-03-03T21:11:32.018Z,17.23
2023-03-03T21:14:13.511Z,17.40
2023-03-03T21:16:42.242Z,22.17
2023-03-03T21:19:23.672Z,22.80
2023-03-03T21:21:51.538Z,22.10
2023-03-03T21:24:21.650Z,19.52
2023-03-03T21:26:54.192Z,20.65
2023-03-03T21:29:22.138Z,16.77
2023-03-03T21:31:52.498Z,20.55
2023-03-03T21:34:35.534Z,22.80
2023-03-03T21:37:05.917Z,17.63
2023-03-03T21:39:37.576Z,21.35
2023-03-03T21:42:11.329Z,25.13
2023-03-03T21:44:51.906Z,27.35
2023-03-03T21:47:22.101Z,25.58
2023-03-03T21:49:51.582Z,16.20
2023-03-03T21:52:21.092Z,18.90
2023-03-03T21:54:51.006Z,24.40
2023-03-03T21:57:18.672Z,19.58
2023-03-03T21:59:45.502Z,16.73
2023-03-03T22:02:12.436Z,22.42
2023-03-03T22:04:39.363Z,19.17
2023-03-03T22:07:06.671Z,19.95
2023-03-03T22:09:34.092Z,18.05
2023-03-03T22:12:00.933Z,19.92
2023-03-03T22:14:27.933Z,26.05
2023-03-03T22:16:54.755Z,16.23
2023-03-03T22:19:21.811Z,14.63
2023-03-03T22:21:49.620Z,19.08
2023-03-03T22:24:16.923Z,30.65
2023-03-03T22:26:43.697Z,15.35
2023-03-03T22:29:10.461Z,15.40
2023-03-03T22:31:37.485Z,19.08
2023-03-03T22:34:07.544Z,22.95
2023-03-03T22:36:34.389Z,16.42
2023-03-03T22:39:01.855Z,19.60
2023-03-03T22:41:28.643Z,20.63
2023-03-03T22:43:55.409Z,20.88
2023-03-03T22:46:22.241Z,22.73
2023-03-03T22:48:49.031Z,17.15
2023-03-03T22:51:15.841Z,18.40
2023-03-03T22:53:42.627Z,17.10
2023-03-03T22:56:09.475Z,18.17
2023-03-03T22:58:36.278Z,30.50
2023-03-03T23:01:04.708Z,11.70
2023-03-03T23:03:32.658Z,20.33
2023-03-03T23:05:59.666Z,21.08
2023-03-03T23:08:27.502Z,17.90
2023-03-03T23:10:54.310Z,16.55
2023-03-03T23:13:21.181Z,17.00
2023-03-03T23:15:47.948Z,15.90
2023-03-03T23:18:14.729Z,11.52
2023-03-03T23:20:45.654Z,15.82
2023-03-03T23:23:12.585Z,28.05
2023-03-03T23:25:39.494Z,19.38
2023-03-03T23:28:06.469Z,17.42
2023-03-03T23:30:33.237Z,28.35
2023-03-03T23:33:00.098Z,26.70
2023-03-03T23:35:26.894Z,21.30
2023-03-03T23:37:53.709Z,25.98
2023-03-03T23:40:20.534Z,21.85
2023-03-03T23:42:47.405Z,25.90
2023-03-03T23:45:14.564Z,16.83
2023-03-03T23:47:41.983Z,20.05
2023-03-03T23:50:11.101Z,21.98
2023-03-03T23:52:38.258Z,21.88
2023-03-03T23:55:06.175Z,19.77
2023-03-03T23:57:33.039Z,21.10
2023-03-03T23:59:59.829Z,23.65
